Time;durP1;ratioP1;P1;durP2;ratioP2;P2;SDS_P1;SDS_P2;PMS_P1;PMS_P2;Temp;Humidity;BMP_temperature;BMP_pressure;BME280_temperature;BME280_humidity;BME280_pressure;Samples;Min_cycle;Max_cycle;Signal;HPM_P1;HPM_P2
2022/03/09 00:01:31;;;;;;;0.50;0.50;;;;;;;;;;143730;697;46012;-67
2022/03/09 00:03:59;;;;;;;0.30;0.30;;;;;;;;;;143733;570;45031;-69
2022/03/09 00:06:27;;;;;;;0.55;0.50;;;;;;;;;;143726;578;47018;-67
2022/03/09 00:08:53;;;;;;;0.47;0.47;;;;;;;;;;143725;566;46022;-69
2022/03/09 00:11:21;;;;;;;0.40;0.40;;;;;;;;;;143730;575;45018;-69
2022/03/09 00:13:48;;;;;;;0.30;0.30;;;;;;;;;;143731;566;46013;-68
2022/03/09 00:16:15;;;;;;;0.30;0.30;;;;;;;;;;143726;616;47020;-68
2022/03/09 00:18:42;;;;;;;0.30;0.30;;;;;;;;;;143727;606;46022;-70
2022/03/09 00:21:09;;;;;;;0.30;0.30;;;;;;;;;;143728;764;46013;-68
2022/03/09 00:23:36;;;;;;;0.30;0.30;;;;;;;;;;143733;583;45022;-68
2022/03/09 00:26:03;;;;;;;0.60;0.60;;;;;;;;;;143727;573;46020;-70
2022/03/09 00:28:30;;;;;;;0.68;0.43;;;;;;;;;;143727;610;46023;-68
2022/03/09 00:30:58;;;;;;;0.30;0.30;;;;;;;;;;143730;588;45018;-69
2022/03/09 00:33:24;;;;;;;1.45;0.40;;;;;;;;;;143733;585;45024;-68
2022/03/09 00:35:52;;;;;;;0.40;0.40;;;;;;;;;;143726;586;46045;-68
2022/03/09 00:38:19;;;;;;;0.30;0.30;;;;;;;;;;143726;589;46022;-67
2022/03/09 00:40:48;;;;;;;0.43;0.43;;;;;;;;;;143727;597;46012;-68
2022/03/09 00:43:16;;;;;;;0.45;0.45;;;;;;;;;;143728;615;48012;-67
2022/03/09 00:45:43;;;;;;;0.37;0.37;;;;;;;;;;143728;573;46036;-67
2022/03/09 00:48:10;;;;;;;0.40;0.40;;;;;;;;;;143726;595;46022;-68
2022/03/09 00:50:37;;;;;;;0.40;0.40;;;;;;;;;;143726;588;46018;-67
2022/03/09 00:53:04;;;;;;;0.50;0.50;;;;;;;;;;143732;571;46023;-66
2022/03/09 00:55:31;;;;;;;0.40;0.40;;;;;;;;;;143726;569;46020;-65
2022/03/09 00:57:58;;;;;;;0.45;0.45;;;;;;;;;;143725;567;46023;-66
2022/03/09 01:00:25;;;;;;;0.50;0.50;;;;;;;;;;143730;596;45018;-65
2022/03/09 01:02:52;;;;;;;0.40;0.40;;;;;;;;;;143733;634;45022;-66
2022/03/09 01:05:19;;;;;;;0.40;0.40;;;;;;;;;;143726;587;46020;-66
2022/03/09 01:07:46;;;;;;;0.40;0.40;;;;;;;;;;143726;576;46023;-67
2022/03/09 01:10:14;;;;;;;0.30;0.30;;;;;;;;;;143729;569;46012;-67
2022/03/09 01:12:41;;;;;;;0.40;0.40;;;;;;;;;;143732;576;46012;-67
2022/03/09 01:15:08;;;;;;;0.30;0.30;;;;;;;;;;143726;588;47021;-67
2022/03/09 01:17:35;;;;;;;0.45;0.45;;;;;;;;;;143725;571;46022;-67
2022/03/09 01:20:03;;;;;;;0.57;0.57;;;;;;;;;;143731;573;45019;-67
2022/03/09 01:22:30;;;;;;;0.43;0.43;;;;;;;;;;143733;606;45023;-66
2022/03/09 01:24:57;;;;;;;0.50;0.50;;;;;;;;;;143727;596;46020;-66
2022/03/09 01:27:24;;;;;;;0.37;0.37;;;;;;;;;;143727;582;46023;-67
2022/03/09 01:29:51;;;;;;;0.30;0.30;;;;;;;;;;143729;580;46012;-67
2022/03/09 01:32:21;;;;;;;0.88;0.40;;;;;;;;;;143732;588;46022;-68
2022/03/09 01:34:48;;;;;;;0.30;0.30;;;;;;;;;;143726;586;46020;-68
2022/03/09 01:37:14;;;;;;;0.57;0.50;;;;;;;;;;143728;590;46012;-68
2022/03/09 01:39:41;;;;;;;0.30;0.30;;;;;;;;;;143727;574;46012;-68
2022/03/09 01:42:08;;;;;;;0.82;0.82;;;;;;;;;;143732;612;46022;-67
2022/03/09 01:44:36;;;;;;;0.30;0.30;;;;;;;;;;143729;649;46030;-67
2022/03/09 01:47:03;;;;;;;0.40;0.40;;;;;;;;;;143728;569;46022;-68
2022/03/09 01:49:30;;;;;;;0.40;0.40;;;;;;;;;;143730;590;46013;-68
2022/03/09 01:52:00;;;;;;;0.50;0.50;;;;;;;;;;143733;666;46023;-69
2022/03/09 01:54:28;;;;;;;0.30;0.30;;;;;;;;;;143728;576;46020;-69
2022/03/09 01:56:55;;;;;;;0.47;0.47;;;;;;;;;;143728;589;46023;-68
2022/03/09 01:59:22;;;;;;;0.90;0.62;;;;;;;;;;143732;572;45019;-67
2022/03/09 02:01:50;;;;;;;0.30;0.30;;;;;;;;;;143733;600;46022;-67
2022/03/09 02:04:18;;;;;;;0.55;0.55;;;;;;;;;;143729;617;46020;-67
2022/03/09 02:06:45;;;;;;;0.60;0.60;;;;;;;;;;143728;569;46022;-67
2022/03/09 02:11:58;;;;;;;0.70;0.70;;;;;;;;;;143729;629;46022;-66
2022/03/09 02:14:39;;;;;;;0.85;0.43;;;;;;;;;;143728;648;46021;-68
2022/03/09 02:17:10;;;;;;;0.43;0.43;;;;;;;;;;143729;623;46012;-66
2022/03/09 02:19:38;;;;;;;0.50;0.50;;;;;;;;;;143732;697;45022;-66
2022/03/09 02:22:32;;;;;;;1.02;0.70;;;;;;;;;;143733;565;46012;-67
2022/03/09 02:25:00;;;;;;;0.57;0.57;;;;;;;;;;143729;624;46022;-66
2022/03/09 02:27:27;;;;;;;0.73;0.73;;;;;;;;;;143728;593;46023;-66
2022/03/09 02:29:55;;;;;;;0.50;0.50;;;;;;;;;;143730;570;46012;-66
2022/03/09 02:32:23;;;;;;;0.70;0.70;;;;;;;;;;143732;643;46022;-66
2022/03/09 02:34:51;;;;;;;0.75;0.65;;;;;;;;;;143728;579;46020;-66
2022/03/09 02:37:18;;;;;;;0.90;0.90;;;;;;;;;;143728;585;46022;-67
2022/03/09 02:39:45;;;;;;;1.65;0.95;;;;;;;;;;143732;628;45028;-66
2022/03/09 02:42:12;;;;;;;0.73;0.73;;;;;;;;;;143731;604;46022;-66
2022/03/09 02:44:40;;;;;;;1.02;1.02;;;;;;;;;;143729;574;46018;-66
2022/03/09 02:47:07;;;;;;;0.70;0.70;;;;;;;;;;143729;570;46012;-66
2022/03/09 02:49:34;;;;;;;0.75;0.68;;;;;;;;;;143730;608;46012;-66
2022/03/09 02:52:01;;;;;;;0.60;0.60;;;;;;;;;;143732;605;46012;-66
2022/03/09 02:54:28;;;;;;;1.08;0.80;;;;;;;;;;143728;596;46046;-67
2022/03/09 02:56:56;;;;;;;0.88;0.88;;;;;;;;;;143730;564;46012;-67
2022/03/09 02:59:23;;;;;;;0.52;0.52;;;;;;;;;;143728;579;46012;-68
2022/03/09 03:01:50;;;;;;;0.55;0.55;;;;;;;;;;143733;577;46012;-66
2022/03/09 03:04:18;;;;;;;0.70;0.70;;;;;;;;;;143727;606;47019;-66
2022/03/09 03:06:45;;;;;;;0.57;0.57;;;;;;;;;;143726;604;46023;-66
2022/03/09 03:09:12;;;;;;;1.45;0.60;;;;;;;;;;143731;721;45031;-67
2022/03/09 03:11:39;;;;;;;0.45;0.45;;;;;;;;;;143734;580;45023;-66
2022/03/09 03:14:06;;;;;;;0.43;0.43;;;;;;;;;;143729;570;46019;-66
2022/03/09 03:16:34;;;;;;;0.60;0.60;;;;;;;;;;143728;606;46022;-66
2022/03/09 03:19:01;;;;;;;0.40;0.40;;;;;;;;;;143731;584;46014;-66
2022/03/09 03:21:28;;;;;;;1.27;0.70;;;;;;;;;;143734;588;45023;-66
2022/03/09 03:23:54;;;;;;;0.43;0.43;;;;;;;;;;143728;571;46020;-66
2022/03/09 03:26:24;;;;;;;0.55;0.55;;;;;;;;;;143727;586;46023;-67
2022/03/09 03:28:53;;;;;;;0.40;0.40;;;;;;;;;;143731;582;45019;-66
2022/03/09 03:31:21;;;;;;;0.50;0.50;;;;;;;;;;143732;608;46022;-66
2022/03/09 03:33:48;;;;;;;0.50;0.50;;;;;;;;;;143728;577;46020;-66
2022/03/09 03:36:16;;;;;;;0.40;0.40;;;;;;;;;;143728;566;46022;-66
2022/03/09 03:38:43;;;;;;;0.50;0.50;;;;;;;;;;143732;619;45023;-66
2022/03/09 03:41:10;;;;;;;0.60;0.60;;;;;;;;;;143733;594;46022;-66
2022/03/09 03:43:37;;;;;;;0.50;0.50;;;;;;;;;;143729;624;46018;-66
2022/03/09 03:46:05;;;;;;;0.60;0.60;;;;;;;;;;143726;569;46022;-67
2022/03/09 03:48:32;;;;;;;0.40;0.40;;;;;;;;;;143732;570;45022;-66
2022/03/09 03:50:59;;;;;;;1.45;0.50;;;;;;;;;;143734;603;45034;-67
2022/03/09 03:53:26;;;;;;;0.47;0.47;;;;;;;;;;143728;647;46020;-66
2022/03/09 03:55:53;;;;;;;0.40;0.40;;;;;;;;;;143728;586;46023;-67
2022/03/09 03:58:20;;;;;;;0.45;0.45;;;;;;;;;;143731;569;45026;-66
2022/03/09 04:00:47;;;;;;;0.50;0.50;;;;;;;;;;143732;565;46022;-67
2022/03/09 04:03:15;;;;;;;0.57;0.57;;;;;;;;;;143727;620;46020;-67
2022/03/09 04:05:42;;;;;;;0.57;0.57;;;;;;;;;;143728;673;46022;-66
2022/03/09 04:08:09;;;;;;;2.62;0.68;;;;;;;;;;143731;571;46012;-67
2022/03/09 04:10:36;;;;;;;0.52;0.52;;;;;;;;;;143733;599;46022;-66
2022/03/09 04:13:04;;;;;;;0.70;0.70;;;;;;;;;;143728;710;46021;-66
2022/03/09 04:15:32;;;;;;;0.47;0.47;;;;;;;;;;143728;572;46012;-66
2022/03/09 04:17:59;;;;;;;0.50;0.50;;;;;;;;;;143729;569;46018;-66
2022/03/09 04:20:27;;;;;;;0.80;0.80;;;;;;;;;;143733;577;46023;-66
2022/03/09 04:22:54;;;;;;;0.40;0.40;;;;;;;;;;143728;603;46020;-66
2022/03/09 04:25:20;;;;;;;0.80;0.80;;;;;;;;;;143726;586;46023;-66
2022/03/09 04:27:47;;;;;;;1.45;0.40;;;;;;;;;;143731;574;45034;-66
2022/03/09 04:30:14;;;;;;;0.65;0.60;;;;;;;;;;143734;593;45022;-66
2022/03/09 04:32:41;;;;;;;0.60;0.60;;;;;;;;;;143727;586;47019;-66
2022/03/09 04:35:09;;;;;;;0.60;0.60;;;;;;;;;;143728;584;46022;-66
2022/03/09 04:37:37;;;;;;;0.95;0.60;;;;;;;;;;143731;628;46012;-65
2022/03/09 04:40:05;;;;;;;0.50;0.50;;;;;;;;;;143733;707;46012;-65
2022/03/09 04:42:32;;;;;;;0.50;0.50;;;;;;;;;;143728;587;46021;-64
2022/03/09 04:44:59;;;;;;;1.73;0.95;;;;;;;;;;143728;640;46022;-63
2022/03/09 04:47:26;;;;;;;0.70;0.70;;;;;;;;;;143731;575;45019;-63
2022/03/09 04:49:53;;;;;;;1.08;1.05;;;;;;;;;;143734;603;45023;-63
2022/03/09 04:52:20;;;;;;;0.98;0.73;;;;;;;;;;143728;564;46048;-62
2022/03/09 04:54:48;;;;;;;0.75;0.75;;;;;;;;;;143729;705;46013;-62
2022/03/09 04:57:15;;;;;;;0.60;0.60;;;;;;;;;;143731;569;45019;-63
2022/03/09 04:59:42;;;;;;;0.82;0.82;;;;;;;;;;143732;590;46022;-63
2022/03/09 05:02:09;;;;;;;0.73;0.73;;;;;;;;;;143727;692;46020;-63
2022/03/09 05:04:36;;;;;;;0.80;0.80;;;;;;;;;;143728;705;46022;-63
2022/03/09 05:07:03;;;;;;;1.87;1.00;;;;;;;;;;143732;581;45018;-62
2022/03/09 05:09:31;;;;;;;0.80;0.77;;;;;;;;;;143733;563;46022;-63
2022/03/09 05:11:58;;;;;;;1.65;1.10;;;;;;;;;;143729;577;46047;-63
2022/03/09 05:14:24;;;;;;;1.15;0.88;;;;;;;;;;143726;580;46022;-63
2022/03/09 05:16:51;;;;;;;0.93;0.93;;;;;;;;;;143731;574;45019;-63
2022/03/09 05:19:19;;;;;;;0.80;0.80;;;;;;;;;;143733;620;46023;-63
2022/03/09 05:21:46;;;;;;;0.90;0.90;;;;;;;;;;143725;745;47018;-63
2022/03/09 05:24:12;;;;;;;0.68;0.68;;;;;;;;;;143726;578;46023;-63
2022/03/09 05:26:39;;;;;;;2.30;1.20;;;;;;;;;;143728;579;46012;-63
2022/03/09 05:29:07;;;;;;;0.90;0.70;;;;;;;;;;143733;621;46022;-63
2022/03/09 05:31:34;;;;;;;2.33;0.95;;;;;;;;;;143728;685;46020;-64
2022/03/09 05:34:01;;;;;;;0.93;0.93;;;;;;;;;;143728;572;46023;-63
2022/03/09 05:36:28;;;;;;;1.40;1.30;;;;;;;;;;143731;681;45018;-64
2022/03/09 05:38:54;;;;;;;1.15;1.10;;;;;;;;;;143733;593;46022;-63
2022/03/09 05:41:22;;;;;;;5.10;1.70;;;;;;;;;;143727;617;46021;-65
2022/03/09 05:43:50;;;;;;;1.08;1.05;;;;;;;;;;143728;637;46022;-64
2022/03/09 05:46:17;;;;;;;2.42;1.55;;;;;;;;;;143730;572;46018;-63
2022/03/09 05:48:44;;;;;;;2.12;1.40;;;;;;;;;;143733;588;46023;-64
2022/03/09 05:51:11;;;;;;;2.00;1.75;;;;;;;;;;143728;784;46020;-65
2022/03/09 05:53:39;;;;;;;3.22;1.77;;;;;;;;;;143727;622;46022;-65
2022/03/09 05:56:06;;;;;;;1.95;1.73;;;;;;;;;;143730;764;46012;-64
2022/03/09 05:58:33;;;;;;;1.62;1.50;;;;;;;;;;143733;580;46022;-64
2022/03/09 06:01:01;;;;;;;2.97;2.35;;;;;;;;;;143728;627;46020;-64
2022/03/09 06:03:28;;;;;;;2.20;1.85;;;;;;;;;;143728;586;46023;-64
2022/03/09 06:05:55;;;;;;;2.62;2.28;;;;;;;;;;143730;661;46012;-64
2022/03/09 06:08:22;;;;;;;2.03;1.85;;;;;;;;;;143733;590;46022;-64
2022/03/09 06:10:49;;;;;;;1.95;1.25;;;;;;;;;;143728;590;46021;-64
2022/03/09 06:13:16;;;;;;;2.22;1.42;;;;;;;;;;143729;564;46012;-64
2022/03/09 06:15:44;;;;;;;2.30;1.70;;;;;;;;;;143728;665;46018;-64
2022/03/09 06:18:11;;;;;;;6.28;2.30;;;;;;;;;;143732;577;46023;-64
2022/03/09 06:20:39;;;;;;;1.67;1.37;;;;;;;;;;143727;566;46018;-64
2022/03/09 06:23:06;;;;;;;3.40;2.25;;;;;;;;;;143728;620;46012;-64
2022/03/09 06:25:34;;;;;;;3.28;2.12;;;;;;;;;;143727;581;46012;-63
2022/03/09 06:28:01;;;;;;;2.08;1.90;;;;;;;;;;143731;599;46022;-63
2022/03/09 06:30:28;;;;;;;4.40;2.75;;;;;;;;;;143727;662;46018;-64
2022/03/09 06:32:55;;;;;;;2.90;2.08;;;;;;;;;;143727;603;46023;-63
2022/03/09 06:35:22;;;;;;;3.33;2.10;;;;;;;;;;143729;575;46012;-64
2022/03/09 06:37:49;;;;;;;2.00;1.80;;;;;;;;;;143732;572;45022;-64
2022/03/09 06:40:16;;;;;;;3.28;2.25;;;;;;;;;;143724;577;47018;-64
2022/03/09 06:42:43;;;;;;;2.10;1.65;;;;;;;;;;143727;579;46012;-64
2022/03/09 06:45:11;;;;;;;1.58;1.48;;;;;;;;;;143730;585;45018;-63
2022/03/09 06:47:38;;;;;;;2.42;2.22;;;;;;;;;;143731;582;46012;-64
2022/03/09 06:50:07;;;;;;;2.17;1.75;;;;;;;;;;143727;573;46020;-64
2022/03/09 06:52:35;;;;;;;2.47;2.28;;;;;;;;;;143726;576;46022;-64
2022/03/09 06:55:03;;;;;;;2.60;2.22;;;;;;;;;;143726;574;46012;-64
2022/03/09 06:57:33;;;;;;;2.65;2.40;;;;;;;;;;143731;640;46012;-63
2022/03/09 07:00:01;;;;;;;2.78;2.03;;;;;;;;;;143726;666;46020;-63
2022/03/09 07:02:28;;;;;;;10.10;5.10;;;;;;;;;;143728;572;46012;-64
2022/03/09 07:04:54;;;;;;;19.17;8.48;;;;;;;;;;143726;599;46014;-64
2022/03/09 07:07:21;;;;;;;17.60;9.93;;;;;;;;;;143731;600;46022;-64
2022/03/09 07:09:48;;;;;;;17.00;7.65;;;;;;;;;;143726;586;46020;-65
2022/03/09 07:12:15;;;;;;;12.55;7.60;;;;;;;;;;143725;597;47012;-65
2022/03/09 07:14:42;;;;;;;20.25;10.05;;;;;;;;;;143728;595;46014;-65
2022/03/09 07:17:09;;;;;;;10.07;5.60;;;;;;;;;;143731;570;46022;-65
2022/03/09 07:19:36;;;;;;;11.20;6.05;;;;;;;;;;143726;565;46035;-65
2022/03/09 07:22:04;;;;;;;10.68;5.55;;;;;;;;;;143727;641;46012;-65
2022/03/09 07:24:31;;;;;;;7.47;4.40;;;;;;;;;;143731;679;46012;-65
2022/03/09 07:26:58;;;;;;;7.85;4.40;;;;;;;;;;143731;585;46012;-65
2022/03/09 07:29:25;;;;;;;17.25;8.52;;;;;;;;;;143726;575;46020;-65
2022/03/09 07:31:52;;;;;;;12.82;8.18;;;;;;;;;;143724;581;46922;-65
2022/03/09 07:34:22;;;;;;;19.55;11.00;;;;;;;;;;143729;580;46014;-65
2022/03/09 07:36:50;;;;;;;15.77;8.63;;;;;;;;;;143732;603;45024;-66
2022/03/09 07:39:19;;;;;;;19.17;10.93;;;;;;;;;;143725;650;46026;-66
2022/03/09 07:41:46;;;;;;;13.13;7.45;;;;;;;;;;143727;606;46012;-66
2022/03/09 07:44:13;;;;;;;11.45;7.55;;;;;;;;;;143729;566;46018;-65
2022/03/09 07:46:40;;;;;;;10.48;6.28;;;;;;;;;;143729;621;46023;-65
2022/03/09 07:49:08;;;;;;;11.07;6.55;;;;;;;;;;143725;643;46021;-65
2022/03/09 07:51:36;;;;;;;9.57;5.55;;;;;;;;;;143724;640;46022;-66
2022/03/09 07:54:03;;;;;;;12.68;5.90;;;;;;;;;;143729;585;46012;-67
2022/03/09 07:56:30;;;;;;;7.53;4.93;;;;;;;;;;143731;582;46012;-67
2022/03/09 07:58:57;;;;;;;10.57;5.43;;;;;;;;;;143727;571;46020;-66
2022/03/09 08:01:24;;;;;;;6.57;4.45;;;;;;;;;;143726;564;46023;-66
2022/03/09 08:03:51;;;;;;;5.82;4.22;;;;;;;;;;143727;608;46012;-66
2022/03/09 08:06:18;;;;;;;7.15;4.50;;;;;;;;;;143730;599;46024;-66
2022/03/09 08:08:45;;;;;;;5.97;4.32;;;;;;;;;;143727;598;46019;-66
2022/03/09 08:11:12;;;;;;;8.57;5.00;;;;;;;;;;143727;569;46012;-65
2022/03/09 08:13:39;;;;;;;6.82;4.85;;;;;;;;;;143727;594;46012;-65
2022/03/09 08:16:06;;;;;;;7.65;4.70;;;;;;;;;;143730;588;46013;-65
2022/03/09 08:18:33;;;;;;;7.22;4.60;;;;;;;;;;143728;645;46019;-65
2022/03/09 08:21:00;;;;;;;8.18;5.47;;;;;;;;;;143727;613;46012;-65
2022/03/09 08:23:27;;;;;;;9.35;6.45;;;;;;;;;;143730;605;45019;-65
2022/03/09 08:25:54;;;;;;;21.45;13.82;;;;;;;;;;143731;569;46012;-65
2022/03/09 08:28:22;;;;;;;37.08;21.10;;;;;;;;;;143727;565;46020;-65
2022/03/09 08:30:49;;;;;;;38.83;22.33;;;;;;;;;;143725;609;47013;-64
2022/03/09 08:33:16;;;;;;;35.53;17.35;;;;;;;;;;143729;577;45031;-64
2022/03/09 08:35:43;;;;;;;29.20;16.62;;;;;;;;;;143729;683;46020;-64
2022/03/09 08:38:10;;;;;;;17.95;10.50;;;;;;;;;;143727;590;46019;-64
2022/03/09 08:40:37;;;;;;;20.10;11.55;;;;;;;;;;143727;620;46012;-65
2022/03/09 08:43:05;;;;;;;16.15;9.80;;;;;;;;;;143729;722;45018;-64
2022/03/09 08:45:32;;;;;;;13.77;8.27;;;;;;;;;;143730;577;46013;-65
2022/03/09 08:47:59;;;;;;;16.48;8.43;;;;;;;;;;143726;579;46021;-64
2022/03/09 08:50:26;;;;;;;14.00;8.60;;;;;;;;;;143726;590;46022;-65
2022/03/09 08:52:53;;;;;;;16.58;9.48;;;;;;;;;;143728;641;46015;-64
2022/03/09 08:55:20;;;;;;;12.37;8.38;;;;;;;;;;143730;594;46012;-64
2022/03/09 08:57:46;;;;;;;16.37;8.63;;;;;;;;;;143725;595;46020;-64
2022/03/09 09:00:14;;;;;;;13.70;7.20;;;;;;;;;;143727;617;46013;-65
2022/03/09 09:02:41;;;;;;;9.07;6.45;;;;;;;;;;143730;577;45019;-65
2022/03/09 09:05:08;;;;;;;10.63;7.03;;;;;;;;;;143730;575;46012;-64
2022/03/09 09:07:35;;;;;;;10.68;7.37;;;;;;;;;;143729;583;46020;-64
2022/03/09 09:10:02;;;;;;;10.77;7.45;;;;;;;;;;143728;575;46012;-65
2022/03/09 09:12:30;;;;;;;10.82;7.40;;;;;;;;;;143729;618;46014;-64
2022/03/09 09:14:57;;;;;;;11.80;7.70;;;;;;;;;;143729;579;46022;-64
2022/03/09 09:17:24;;;;;;;9.27;6.70;;;;;;;;;;143725;592;46019;-64
2022/03/09 09:19:51;;;;;;;10.07;6.55;;;;;;;;;;143728;597;46012;-64
2022/03/09 09:22:18;;;;;;;9.30;7.07;;;;;;;;;;143728;704;46012;-64
2022/03/09 09:24:45;;;;;;;21.40;12.27;;;;;;;;;;143730;630;46013;-64
2022/03/09 09:27:12;;;;;;;16.17;10.70;;;;;;;;;;143727;577;46018;-64
2022/03/09 09:29:39;;;;;;;14.20;8.10;;;;;;;;;;143724;575;46022;-64
2022/03/09 09:32:06;;;;;;;10.50;7.10;;;;;;;;;;143729;566;45019;-64
2022/03/09 09:34:33;;;;;;;9.38;6.62;;;;;;;;;;143732;585;45022;-65
2022/03/09 09:37:02;;;;;;;11.55;7.50;;;;;;;;;;143726;570;46020;-65
2022/03/09 09:39:29;;;;;;;13.60;7.45;;;;;;;;;;143727;569;46013;-65
2022/03/09 09:41:56;;;;;;;11.10;7.50;;;;;;;;;;143727;580;46012;-65
2022/03/09 09:44:24;;;;;;;11.10;7.22;;;;;;;;;;143729;608;46012;-64
2022/03/09 09:46:52;;;;;;;11.10;8.27;;;;;;;;;;143726;616;46020;-65
2022/03/09 09:49:25;;;;;;;12.18;7.93;;;;;;;;;;143726;644;46022;-64
2022/03/09 09:51:54;;;;;;;10.50;7.82;;;;;;;;;;143729;573;45018;-64
2022/03/09 09:54:23;;;;;;;10.20;7.37;;;;;;;;;;143730;657;46023;-65
2022/03/09 09:56:51;;;;;;;10.77;7.97;;;;;;;;;;143727;676;46020;-65
2022/03/09 09:59:18;;;;;;;10.82;7.55;;;;;;;;;;143727;580;46022;-65
2022/03/09 10:01:45;;;;;;;9.27;6.82;;;;;;;;;;143729;585;45019;-65
2022/03/09 10:04:12;;;;;;;9.55;6.95;;;;;;;;;;143729;695;46022;-64
2022/03/09 10:06:38;;;;;;;10.93;7.87;;;;;;;;;;143727;569;46018;-64
2022/03/09 10:09:11;;;;;;;10.57;7.68;;;;;;;;;;143726;653;46923;-65
2022/03/09 10:11:51;;;;;;;12.10;7.30;;;;;;;;;;143724;569;47018;-65
2022/03/09 10:14:57;;;;;;;11.88;8.32;;;;;;;;;;143731;582;46012;-64
2022/03/09 10:17:32;;;;;;;11.68;8.82;;;;;;;;;;143727;581;46023;-65
2022/03/09 10:20:09;;;;;;;13.10;10.30;;;;;;;;;;143726;633;46022;-64
2022/03/09 10:22:44;;;;;;;15.18;9.95;;;;;;;;;;143727;578;46019;-64
2022/03/09 10:25:25;;;;;;;13.30;9.25;;;;;;;;;;143732;570;45023;-64
2022/03/09 10:27:54;;;;;;;11.57;8.48;;;;;;;;;;143724;564;46020;-64
2022/03/09 10:30:32;;;;;;;14.82;10.00;;;;;;;;;;143727;637;46012;-64
2022/03/09 10:33:01;;;;;;;12.68;9.68;;;;;;;;;;143727;592;46012;-64
2022/03/09 10:35:50;;;;;;;13.95;9.68;;;;;;;;;;143726;587;47012;-64
2022/03/09 10:38:28;;;;;;;13.52;10.10;;;;;;;;;;143727;583;46019;-64
2022/03/09 10:41:04;;;;;;;13.43;9.82;;;;;;;;;;143724;607;46022;-64
2022/03/09 10:43:32;;;;;;;13.20;10.18;;;;;;;;;;143729;626;45027;-64
2022/03/09 10:46:11;;;;;;;13.75;9.85;;;;;;;;;;143731;630;46022;-64
2022/03/09 10:49:11;;;;;;;15.48;11.25;;;;;;;;;;143727;597;46020;-65
2022/03/09 10:51:40;;;;;;;14.85;10.98;;;;;;;;;;143726;565;46022;-64
2022/03/09 10:54:21;;;;;;;17.75;12.57;;;;;;;;;;143725;607;46012;-64
2022/03/09 10:56:47;;;;;;;15.40;10.65;;;;;;;;;;143731;564;46012;-64
2022/03/09 10:59:20;;;;;;;17.85;12.80;;;;;;;;;;143727;585;46019;-65
2022/03/09 11:02:07;;;;;;;16.50;12.32;;;;;;;;;;143726;598;46022;-64
2022/03/09 11:04:35;;;;;;;16.95;12.10;;;;;;;;;;143728;580;46012;-64
2022/03/09 11:07:03;;;;;;;17.95;13.02;;;;;;;;;;143732;585;45023;-65
2022/03/09 11:09:31;;;;;;;17.12;12.85;;;;;;;;;;143727;566;46019;-65
2022/03/09 11:11:58;;;;;;;14.50;11.10;;;;;;;;;;143726;634;46022;-65
2022/03/09 11:14:26;;;;;;;18.58;13.52;;;;;;;;;;143726;672;46013;-64
2022/03/09 11:16:57;;;;;;;18.55;12.77;;;;;;;;;;143731;579;46023;-64
2022/03/09 11:19:25;;;;;;;16.77;11.32;;;;;;;;;;143727;600;46020;-64
2022/03/09 11:21:52;;;;;;;21.25;12.93;;;;;;;;;;143726;567;46023;-65
2022/03/09 11:24:20;;;;;;;19.27;13.25;;;;;;;;;;143726;596;46012;-64
2022/03/09 11:26:53;;;;;;;18.48;12.93;;;;;;;;;;143730;579;46022;-65
2022/03/09 11:29:37;;;;;;;19.00;13.75;;;;;;;;;;143725;564;47018;-65
2022/03/09 11:32:09;;;;;;;20.30;14.85;;;;;;;;;;143726;593;46024;-65
2022/03/09 11:34:49;;;;;;;20.20;12.65;;;;;;;;;;143725;573;46012;-66
2022/03/09 11:37:34;;;;;;;21.30;14.95;;;;;;;;;;143731;603;46010;-65
2022/03/09 11:40:27;;;;;;;18.42;14.02;;;;;;;;;;143725;645;46018;-65
2022/03/09 11:42:54;;;;;;;17.35;12.68;;;;;;;;;;143724;679;46027;-66
2022/03/09 11:45:30;;;;;;;19.55;14.15;;;;;;;;;;143729;586;45035;-65
2022/03/09 11:48:17;;;;;;;20.33;15.20;;;;;;;;;;143731;602;46022;-65
2022/03/09 11:51:09;;;;;;;21.85;15.77;;;;;;;;;;143727;621;46018;-65
2022/03/09 11:53:46;;;;;;;45.03;25.37;;;;;;;;;;143725;585;46920;-65
2022/03/09 11:56:39;;;;;;;20.85;14.70;;;;;;;;;;143729;586;45018;-65
2022/03/09 11:59:14;;;;;;;23.10;15.48;;;;;;;;;;143731;585;46022;-65
2022/03/09 12:02:19;;;;;;;29.40;17.98;;;;;;;;;;143726;581;47018;-65
2022/03/09 12:04:46;;;;;;;21.00;16.12;;;;;;;;;;143724;586;46022;-65
2022/03/09 12:07:14;;;;;;;23.45;16.02;;;;;;;;;;143729;609;45019;-66
2022/03/09 12:10:02;;;;;;;20.12;14.55;;;;;;;;;;143731;569;46023;-66
2022/03/09 12:12:31;;;;;;;23.23;16.33;;;;;;;;;;143725;587;47018;-66
2022/03/09 12:15:09;;;;;;;23.70;16.80;;;;;;;;;;143727;591;46012;-66
2022/03/09 12:17:39;;;;;;;20.80;15.55;;;;;;;;;;143728;578;46012;-66
2022/03/09 12:20:30;;;;;;;22.27;16.87;;;;;;;;;;143732;584;45022;-66
2022/03/09 12:23:07;;;;;;;21.42;15.63;;;;;;;;;;143727;620;46019;-66
2022/03/09 12:25:53;;;;;;;24.20;14.93;;;;;;;;;;143723;638;46920;-66
2022/03/09 12:28:45;;;;;;;22.67;15.23;;;;;;;;;;143729;588;45022;-66
2022/03/09 12:31:23;;;;;;;22.15;14.68;;;;;;;;;;143731;609;46013;-66
2022/03/09 12:33:54;;;;;;;22.17;15.15;;;;;;;;;;143727;643;47018;-66
2022/03/09 12:36:25;;;;;;;20.45;14.98;;;;;;;;;;143725;741;46023;-66
2022/03/09 12:38:55;;;;;;;20.65;14.90;;;;;;;;;;143729;590;46012;-66
2022/03/09 12:41:41;;;;;;;24.23;16.30;;;;;;;;;;143732;587;46022;-66
2022/03/09 12:44:19;;;;;;;20.42;15.65;;;;;;;;;;143728;578;46019;-66
2022/03/09 12:46:49;;;;;;;23.58;15.82;;;;;;;;;;143725;627;46022;-66
2022/03/09 12:49:20;;;;;;;21.30;14.98;;;;;;;;;;143728;588;46012;-66
2022/03/09 12:51:52;;;;;;;21.83;15.48;;;;;;;;;;143731;607;46010;-66
2022/03/09 12:54:55;;;;;;;22.23;16.35;;;;;;;;;;143728;597;46021;-67
2022/03/09 12:57:28;;;;;;;21.48;14.52;;;;;;;;;;143727;591;46022;-66
2022/03/09 13:00:16;;;;;;;21.58;14.73;;;;;;;;;;143729;586;45019;-67
2022/03/09 13:02:49;;;;;;;21.50;14.90;;;;;;;;;;143732;626;46022;-67
2022/03/09 13:05:28;;;;;;;24.00;17.50;;;;;;;;;;143729;571;46018;-67
2022/03/09 13:08:00;;;;;;;22.92;17.02;;;;;;;;;;143726;594;46023;-67
2022/03/09 13:10:28;;;;;;;22.80;15.68;;;;;;;;;;143727;595;46012;-67
2022/03/09 13:12:58;;;;;;;23.52;16.70;;;;;;;;;;143732;570;45022;-67
2022/03/09 13:15:48;;;;;;;22.42;14.68;;;;;;;;;;143726;566;46021;-67
2022/03/09 13:18:36;;;;;;;24.20;15.80;;;;;;;;;;143727;569;46022;-67
2022/03/09 13:21:03;;;;;;;22.27;16.20;;;;;;;;;;143726;594;46912;-67
2022/03/09 13:23:34;;;;;;;20.00;15.27;;;;;;;;;;143733;570;45023;-67
2022/03/09 13:26:24;;;;;;;23.75;18.02;;;;;;;;;;143728;564;46020;-67
2022/03/09 13:28:59;;;;;;;19.85;15.27;;;;;;;;;;143728;573;46013;-66
2022/03/09 13:31:51;;;;;;;25.45;16.75;;;;;;;;;;143728;572;46012;-67
2022/03/09 13:34:23;;;;;;;22.98;16.48;;;;;;;;;;143730;598;46020;-67
2022/03/09 13:37:07;;;;;;;24.45;17.60;;;;;;;;;;143728;598;46019;-67
2022/03/09 13:39:47;;;;;;;22.55;16.95;;;;;;;;;;143726;594;46022;-67
2022/03/09 13:42:23;;;;;;;26.48;16.55;;;;;;;;;;143728;578;46012;-67
2022/03/09 13:45:20;;;;;;;23.45;16.12;;;;;;;;;;143731;611;46023;-67
2022/03/09 13:48:05;;;;;;;18.12;14.13;;;;;;;;;;143728;619;46020;-67
2022/03/09 13:50:35;;;;;;;19.55;14.57;;;;;;;;;;143727;595;46022;-66
2022/03/09 13:53:11;;;;;;;23.58;15.68;;;;;;;;;;143728;678;46016;-67
2022/03/09 13:56:15;;;;;;;21.70;15.20;;;;;;;;;;143733;609;45022;-66
2022/03/09 13:58:42;;;;;;;23.23;16.87;;;;;;;;;;143728;600;46019;-67
2022/03/09 14:01:11;;;;;;;22.90;15.95;;;;;;;;;;143724;617;46022;-67
2022/03/09 14:03:49;;;;;;;23.58;16.80;;;;;;;;;;143727;583;46012;-67
2022/03/09 14:06:21;;;;;;;22.10;16.62;;;;;;;;;;143732;597;46012;-67
2022/03/09 14:08:50;;;;;;;23.60;17.73;;;;;;;;;;143728;566;46018;-67
2022/03/09 14:11:19;;;;;;;24.42;17.70;;;;;;;;;;143728;665;46012;-67
2022/03/09 14:14:10;;;;;;;23.60;17.58;;;;;;;;;;143729;583;46012;-67
2022/03/09 14:16:44;;;;;;;24.45;18.05;;;;;;;;;;143734;577;45022;-67
2022/03/09 14:19:22;;;;;;;21.60;15.27;;;;;;;;;;143729;621;46018;-67
2022/03/09 14:21:52;;;;;;;24.75;17.35;;;;;;;;;;143729;686;46012;-67
2022/03/09 14:24:19;;;;;;;25.50;17.02;;;;;;;;;;143730;619;46012;-67
2022/03/09 14:26:48;;;;;;;25.42;17.35;;;;;;;;;;143734;586;45022;-67
2022/03/09 14:29:16;;;;;;;23.80;17.02;;;;;;;;;;143727;602;48020;-67
2022/03/09 14:31:44;;;;;;;31.87;17.77;;;;;;;;;;143727;610;46921;-68
2022/03/09 14:34:12;;;;;;;28.52;19.75;;;;;;;;;;143730;614;46014;-67
2022/03/09 14:36:39;;;;;;;25.65;17.65;;;;;;;;;;143733;605;46023;-67
2022/03/09 14:39:07;;;;;;;25.15;17.30;;;;;;;;;;143729;581;46018;-67
2022/03/09 14:41:35;;;;;;;24.55;15.95;;;;;;;;;;143726;585;46022;-67
2022/03/09 14:44:02;;;;;;;26.50;18.87;;;;;;;;;;143729;591;46012;-67
2022/03/09 14:46:29;;;;;;;28.75;17.60;;;;;;;;;;143734;596;45022;-67
2022/03/09 14:48:56;;;;;;;20.73;16.15;;;;;;;;;;143728;642;47018;-67
2022/03/09 14:51:24;;;;;;;25.55;17.42;;;;;;;;;;143728;564;46023;-67
2022/03/09 14:53:52;;;;;;;23.00;16.08;;;;;;;;;;143727;585;46012;-67